ENKB/KSU METAR and TAF weather

Enter ICAO airport designator
Station Type Date Time Source
ENKB METAR 2018/12/12 16:20 UTC NOAA

ENKB 121620Z 09007KT 060V130 CAVOK M00/M05 Q1029 RMK WIND 745FT 14007KT


Station Type Date Time Source
ENKB Decoded METAR 2018/12/12 16:20 UTC NOAA

Kristiansund / Kvernberget, Norway (ENKB) 63-07N 007-50E 62M
Dec 12, 2018 - 11:20 AM EST / 2018.12.12 1620 UTC
Wind: from the E (090 degrees) at 8 MPH (7 KT) (direction variable):0
Visibility: greater than 7 mile(s):0
Temperature: 32 F (0 C)
Windchill: 24 F (-4 C):1
Dew Point: 23 F (-5 C)
Relative Humidity: 69%
Pressure (altimeter): 30.39 in. Hg (1029 hPa)
ob: ENKB 121620Z 09007KT 060V130 CAVOK M00/M05 Q1029 RMK WIND 745FT 14007KT
cycle: 16

Station Type Date Time Source
ENKB TAF 2010/02/05 07:50 UTC NOAA

METAR ENKB 050750Z 15011KT 110V200 9999 SCT055 BKN070 03/M05 Q1007


Example: see airport list